WALL/BPN METAR and TAF weather

Enter ICAO airport designator
Station Type Date Time Source
WALL METAR 2019/02/18 03:30 UTC NOAA

WALL 180330Z 36007KT 9999 SCT020 32/23 Q1013


Station Type Date Time Source
WALL Decoded METAR 2019/02/18 03:30 UTC NOAA

Station name not available
Feb 17, 2019 - 10:30 PM EST / 2019.02.18 0330 UTC
Wind: from the N (360 degrees) at 8 MPH (7 KT):0
Visibility: greater than 7 mile(s):0
Sky conditions: partly cloudy
Temperature: 89 F (32 C)
Heat index: 96.8 F (36.0 C):1
Dew Point: 73 F (23 C)
Relative Humidity: 59%
Pressure (altimeter): 29.91 in. Hg (1013 hPa)
ob: WALL 180330Z 36007KT 9999 SCT020 32/23 Q1013
cycle: 3

Station Type Date Time Source
WALL TAF 2019/02/17 18:00 UTC NOAA

TAF WALL 171700Z 1718/1806 33004KT 9000 FEW020
BECMG 1800/1802 9999
BECMG 1805/1807 SCT020
BECMG 1810/1812 9000


Example: see airport list